Time;durP1;ratioP1;P1;durP2;ratioP2;P2;SDS_P1;SDS_P2;PMS_P1;PMS_P2;Temp;Humidity;BMP_temperature;BMP_pressure;BME280_temperature;BME280_humidity;BME280_pressure;Samples;Min_cycle;Max_cycle;Signal;HPM_P1;HPM_P2
2022/05/18 00:02:16;;;;;;;;;;;18.90;99.90;;;;;;5130764;27;20441;-82
2022/05/18 00:04:42;;;;;;;;;;;18.90;99.90;;;;;;5112587;27;20363;-81
2022/05/18 00:07:07;;;;;;;;;;;18.90;99.90;;;;;;5130955;27;19927;-82
2022/05/18 00:09:33;;;;;;;;;;;18.90;99.90;;;;;;5095276;27;19927;-81
2022/05/18 00:11:58;;;;;;;;;;;18.80;99.90;;;;;;5131006;27;19931;-82
2022/05/18 00:14:24;;;;;;;;;;;18.80;99.90;;;;;;5130653;27;20335;-81
2022/05/18 00:16:49;;;;;;;;;;;18.80;99.90;;;;;;5113218;27;19931;-82
2022/05/18 00:19:15;;;;;;;;;;;18.70;99.90;;;;;;5123103;27;19931;-82
2022/05/18 00:21:41;;;;;;;;;;;18.70;99.90;;;;;;5148449;27;19927;-82
2022/05/18 00:24:07;;;;;;;;;;;18.70;99.90;;;;;;5130540;27;19976;-81
2022/05/18 00:26:33;;;;;;;;;;;18.70;99.90;;;;;;5133887;27;20296;-82
2022/05/18 00:28:59;;;;;;;;;;;18.70;99.90;;;;;;5123886;27;19923;-81
2022/05/18 00:31:24;;;;;;;;;;;18.60;99.90;;;;;;5134040;27;19927;-81
2022/05/18 00:33:50;;;;;;;;;;;18.60;99.90;;;;;;5151603;27;19930;-81
2022/05/18 00:36:15;;;;;;;;;;;18.60;99.90;;;;;;5126154;27;19978;-81
2022/05/18 00:38:41;;;;;;;;;;;18.60;99.90;;;;;;5134212;27;19935;-81
2022/05/18 00:41:06;;;;;;;;;;;18.50;99.90;;;;;;5134521;27;19923;-81
2022/05/18 00:43:32;;;;;;;;;;;18.50;99.90;;;;;;5134480;27;20952;-81
2022/05/18 00:45:59;;;;;;;;;;;18.50;99.90;;;;;;5117501;27;19923;-81
2022/05/18 00:48:24;;;;;;;;;;;18.50;99.90;;;;;;5154881;27;19930;-81
2022/05/18 00:50:51;;;;;;;;;;;18.40;99.90;;;;;;5154769;27;19923;-81
2022/05/18 00:53:20;;;;;;;;;;;18.50;99.90;;;;;;5148893;27;19923;-81
2022/05/18 00:55:49;;;;;;;;;;;18.40;99.90;;;;;;5145703;27;19931;-81
2022/05/18 00:58:18;;;;;;;;;;;18.40;99.90;;;;;;5141375;27;19923;-82
2022/05/18 01:00:44;;;;;;;;;;;18.40;99.90;;;;;;5155317;27;20353;-81
2022/05/18 01:03:22;;;;;;;;;;;18.40;99.90;;;;;;5141543;27;20384;-81
2022/05/18 01:05:50;;;;;;;;;;;18.40;99.90;;;;;;5134345;27;20330;-81
2022/05/18 01:08:18;;;;;;;;;;;18.30;99.90;;;;;;5133760;27;20348;-82
2022/05/18 01:10:43;;;;;;;;;;;18.40;99.90;;;;;;5138244;27;20018;-81
2022/05/18 01:13:09;;;;;;;;;;;18.30;99.90;;;;;;5154708;27;19974;-81
2022/05/18 01:15:34;;;;;;;;;;;18.30;99.90;;;;;;5135776;27;19923;-81
2022/05/18 01:18:01;;;;;;;;;;;18.40;99.90;;;;;;5154563;27;19930;-81
2022/05/18 01:20:32;;;;;;;;;;;18.30;99.90;;;;;;5154635;27;19923;-81
2022/05/18 01:23:08;;;;;;;;;;;18.40;99.90;;;;;;5154550;27;19927;-81
2022/05/18 01:25:48;;;;;;;;;;;18.40;99.90;;;;;;5154571;27;19923;-81
2022/05/18 01:28:14;;;;;;;;;;;18.40;99.90;;;;;;5145732;27;20044;-81
2022/05/18 01:30:45;;;;;;;;;;;18.30;99.90;;;;;;5140987;27;19966;-81
2022/05/18 01:33:11;;;;;;;;;;;18.30;99.90;;;;;;5142543;27;19923;-81
2022/05/18 01:35:38;;;;;;;;;;;18.30;99.90;;;;;;5146920;27;19923;-81
2022/05/18 01:38:06;;;;;;;;;;;18.30;99.90;;;;;;5115476;27;19924;-81
2022/05/18 01:40:41;;;;;;;;;;;18.30;99.90;;;;;;5127178;27;19923;-81
2022/05/18 01:43:15;;;;;;;;;;;18.30;99.90;;;;;;5154324;27;20015;-81
2022/05/18 01:45:41;;;;;;;;;;;18.20;99.90;;;;;;5154190;27;20005;-81
2022/05/18 01:48:11;;;;;;;;;;;18.20;99.90;;;;;;5148390;27;20006;-81
2022/05/18 01:50:37;;;;;;;;;;;18.20;99.90;;;;;;5133056;27;19992;-82
2022/05/18 01:53:03;;;;;;;;;;;18.20;99.90;;;;;;5097893;27;19998;-81
2022/05/18 01:55:29;;;;;;;;;;;18.10;99.90;;;;;;5132802;27;20014;-81
2022/05/18 01:57:54;;;;;;;;;;;18.10;99.90;;;;;;5133333;27;19924;-81
2022/05/18 02:00:20;;;;;;;;;;;18.10;99.90;;;;;;5132897;27;19924;-81
2022/05/18 02:02:45;;;;;;;;;;;18.10;99.90;;;;;;5114792;27;19927;-81
2022/05/18 02:05:11;;;;;;;;;;;18.00;99.90;;;;;;5136954;27;19927;-81
2022/05/18 02:07:36;;;;;;;;;;;18.00;99.90;;;;;;5153853;27;20350;-81
2022/05/18 02:10:03;;;;;;;;;;;17.90;99.90;;;;;;5153738;27;19923;-81
2022/05/18 02:12:28;;;;;;;;;;;17.90;99.90;;;;;;5153313;27;19923;-81
2022/05/18 02:14:54;;;;;;;;;;;17.90;99.90;;;;;;5153483;27;19923;-81
2022/05/18 02:17:19;;;;;;;;;;;17.80;99.90;;;;;;5153644;27;19931;-81
2022/05/18 02:19:45;;;;;;;;;;;17.80;99.90;;;;;;5134715;27;20448;-81
2022/05/18 02:22:11;;;;;;;;;;;17.70;99.90;;;;;;5153399;27;19927;-81
2022/05/18 02:24:37;;;;;;;;;;;17.70;99.90;;;;;;5153329;27;19923;-82
2022/05/18 02:27:02;;;;;;;;;;;17.70;99.90;;;;;;5134910;27;19967;-81
2022/05/18 02:29:29;;;;;;;;;;;17.60;99.90;;;;;;5152935;27;19927;-82
2022/05/18 02:31:54;;;;;;;;;;;17.60;99.90;;;;;;5152843;27;19930;-81
2022/05/18 02:34:20;;;;;;;;;;;17.60;99.90;;;;;;5134438;27;19927;-81
2022/05/18 02:36:46;;;;;;;;;;;17.60;99.90;;;;;;5153053;27;20053;-81
2022/05/18 02:39:11;;;;;;;;;;;17.60;99.90;;;;;;5149384;27;20139;-81
2022/05/18 02:41:37;;;;;;;;;;;17.60;99.90;;;;;;5132214;27;20056;-81
2022/05/18 02:44:02;;;;;;;;;;;17.60;99.90;;;;;;5131505;27;20007;-81
2022/05/18 02:46:28;;;;;;;;;;;17.50;99.90;;;;;;5132027;27;19927;-81
2022/05/18 02:48:53;;;;;;;;;;;17.50;99.90;;;;;;5131844;27;19931;-81
2022/05/18 02:51:19;;;;;;;;;;;17.50;99.90;;;;;;5132105;27;19924;-81
2022/05/18 02:53:45;;;;;;;;;;;17.40;99.90;;;;;;5096394;27;19931;-81
2022/05/18 02:56:12;;;;;;;;;;;17.40;99.90;;;;;;5112811;27;20305;-81
2022/05/18 02:58:38;;;;;;;;;;;17.40;99.90;;;;;;5131590;27;20010;-82
2022/05/18 03:01:05;;;;;;;;;;;17.30;99.90;;;;;;5131945;27;20096;-81
2022/05/18 03:03:30;;;;;;;;;;;17.30;99.90;;;;;;5113630;27;19923;-81
2022/05/18 03:05:56;;;;;;;;;;;17.20;99.90;;;;;;5112920;27;19934;-81
2022/05/18 03:08:21;;;;;;;;;;;17.20;99.90;;;;;;5113627;27;19930;-81
2022/05/18 03:10:47;;;;;;;;;;;17.20;99.90;;;;;;5131682;27;19927;-81
2022/05/18 03:13:12;;;;;;;;;;;17.20;99.90;;;;;;5131518;27;19934;-81
2022/05/18 03:15:38;;;;;;;;;;;17.10;99.90;;;;;;5131376;27;19945;-80
2022/05/18 03:18:03;;;;;;;;;;;17.10;99.90;;;;;;5131366;27;19924;-81
2022/05/18 03:23:34;;;;;;;;;;;17.10;99.90;;;;;;5131338;27;19923;-81
2022/05/18 03:26:01;;;;;;;;;;;17.00;99.90;;;;;;5131263;27;19942;-81
2022/05/18 03:28:27;;;;;;;;;;;17.10;99.90;;;;;;5131271;27;20403;-81
2022/05/18 03:30:52;;;;;;;;;;;17.00;99.90;;;;;;5130937;27;19934;-81
2022/05/18 03:33:18;;;;;;;;;;;17.00;99.90;;;;;;5130972;27;19924;-81
2022/05/18 03:35:46;;;;;;;;;;;17.00;99.90;;;;;;5130961;27;19966;-81
2022/05/18 03:38:11;;;;;;;;;;;17.00;99.90;;;;;;5112304;27;19934;-81
2022/05/18 03:40:37;;;;;;;;;;;16.90;99.90;;;;;;5146354;27;19930;-81
2022/05/18 03:43:03;;;;;;;;;;;17.00;99.90;;;;;;5151792;27;20330;-81
2022/05/18 03:45:29;;;;;;;;;;;16.90;99.90;;;;;;5151573;27;19930;-81
2022/05/18 03:47:55;;;;;;;;;;;16.90;99.90;;;;;;5151710;27;20359;-81
2022/05/18 03:50:20;;;;;;;;;;;16.80;99.90;;;;;;5151341;27;20023;-81
2022/05/18 03:52:46;;;;;;;;;;;16.80;99.90;;;;;;5151692;27;19923;-82
2022/05/18 03:55:12;;;;;;;;;;;16.80;99.90;;;;;;5151322;27;19962;-81
2022/05/18 03:57:37;;;;;;;;;;;16.80;99.90;;;;;;5151612;27;19923;-82
2022/05/18 04:00:04;;;;;;;;;;;16.70;99.90;;;;;;5151565;27;19968;-82
2022/05/18 04:02:30;;;;;;;;;;;16.70;99.90;;;;;;5151329;27;20387;-81
2022/05/18 04:04:56;;;;;;;;;;;16.70;99.90;;;;;;5151437;27;19927;-81
2022/05/18 04:07:22;;;;;;;;;;;16.70;99.90;;;;;;5151467;27;19968;-82
2022/05/18 04:09:48;;;;;;;;;;;16.70;99.90;;;;;;5132785;27;19933;-82
2022/05/18 04:12:14;;;;;;;;;;;16.70;99.90;;;;;;5155247;27;19923;-79
2022/05/18 04:14:39;;;;;;;;;;;16.70;99.90;;;;;;5155896;27;19923;-81
2022/05/18 04:17:05;;;;;;;;;;;16.70;99.90;;;;;;5137677;27;19958;-82
2022/05/18 04:19:31;;;;;;;;;;;16.70;99.90;;;;;;5136846;27;19927;-81
2022/05/18 04:21:56;;;;;;;;;;;16.70;99.90;;;;;;5155931;27;20292;-81
2022/05/18 04:24:22;;;;;;;;;;;16.60;99.90;;;;;;5155009;27;19922;-81
2022/05/18 04:26:47;;;;;;;;;;;16.70;99.90;;;;;;5155496;27;19930;-81
2022/05/18 04:29:13;;;;;;;;;;;16.70;99.90;;;;;;5136831;27;19923;-81
2022/05/18 04:31:39;;;;;;;;;;;16.70;99.90;;;;;;5155518;27;20405;-81
2022/05/18 04:34:04;;;;;;;;;;;16.70;99.90;;;;;;5136602;27;19967;-81
2022/05/18 04:36:29;;;;;;;;;;;16.70;99.90;;;;;;5155138;27;19957;-81
2022/05/18 04:38:55;;;;;;;;;;;16.70;99.90;;;;;;5154310;27;19926;-81
2022/05/18 04:41:21;;;;;;;;;;;16.80;99.90;;;;;;5134697;27;19992;-81
2022/05/18 04:43:46;;;;;;;;;;;16.80;99.90;;;;;;5134550;27;20376;-81
2022/05/18 04:46:12;;;;;;;;;;;16.80;99.90;;;;;;5134613;27;19930;-82
2022/05/18 04:48:37;;;;;;;;;;;16.90;99.90;;;;;;5115681;27;19927;-82
2022/05/18 04:51:05;;;;;;;;;;;16.90;99.90;;;;;;5134426;27;20030;-82
2022/05/18 04:53:31;;;;;;;;;;;16.90;99.90;;;;;;5115616;27;19939;-81
2022/05/18 04:55:57;;;;;;;;;;;17.00;99.90;;;;;;5134360;27;20457;-81
2022/05/18 04:58:22;;;;;;;;;;;17.00;99.90;;;;;;5115695;27;19924;-82
2022/05/18 05:00:58;;;;;;;;;;;17.10;99.90;;;;;;5134139;27;19923;-82
2022/05/18 05:03:23;;;;;;;;;;;17.10;99.90;;;;;;5133827;27;20443;-82
2022/05/18 05:05:49;;;;;;;;;;;17.10;99.90;;;;;;5134226;27;19923;-82
2022/05/18 05:08:15;;;;;;;;;;;17.20;99.90;;;;;;5116233;27;19974;-81
2022/05/18 05:10:40;;;;;;;;;;;17.20;99.90;;;;;;5115868;27;19924;-82
2022/05/18 05:13:06;;;;;;;;;;;17.30;99.90;;;;;;5133818;27;19975;-81
2022/05/18 05:15:31;;;;;;;;;;;17.30;99.90;;;;;;5133892;27;20014;-82
2022/05/18 05:17:57;;;;;;;;;;;17.30;99.90;;;;;;5134055;27;19974;-81
2022/05/18 05:20:22;;;;;;;;;;;17.30;99.90;;;;;;5133926;27;19975;-81
2022/05/18 05:22:48;;;;;;;;;;;17.40;99.90;;;;;;5114612;27;20342;-82
2022/05/18 05:25:14;;;;;;;;;;;17.40;99.90;;;;;;5098199;27;19927;-81
2022/05/18 05:27:39;;;;;;;;;;;17.40;99.90;;;;;;5133627;27;19923;-82
2022/05/18 05:30:05;;;;;;;;;;;17.40;99.90;;;;;;5115465;27;19924;-81
2022/05/18 05:32:31;;;;;;;;;;;17.50;99.90;;;;;;5133188;27;19995;-81
2022/05/18 05:34:58;;;;;;;;;;;17.50;99.90;;;;;;5133679;27;19924;-82
2022/05/18 05:37:23;;;;;;;;;;;17.50;99.90;;;;;;5114666;27;19984;-79
2022/05/18 05:39:49;;;;;;;;;;;17.50;99.90;;;;;;5123924;27;19923;-78
2022/05/18 05:42:15;;;;;;;;;;;17.40;99.90;;;;;;5147194;27;20091;-80
2022/05/18 05:44:40;;;;;;;;;;;17.50;99.90;;;;;;5134769;27;19930;-79
2022/05/18 05:47:08;;;;;;;;;;;17.50;99.90;;;;;;5154005;27;19922;-80
2022/05/18 05:49:33;;;;;;;;;;;17.50;99.90;;;;;;5135465;27;19923;-81
2022/05/18 05:51:59;;;;;;;;;;;17.60;99.90;;;;;;5153622;27;19968;-80
2022/05/18 05:54:26;;;;;;;;;;;17.60;99.90;;;;;;5118578;27;19923;-81
2022/05/18 05:56:52;;;;;;;;;;;17.70;99.90;;;;;;5135405;27;19939;-81
2022/05/18 05:59:19;;;;;;;;;;;17.70;99.90;;;;;;5153163;27;19977;-80
2022/05/18 06:01:45;;;;;;;;;;;17.80;99.90;;;;;;5135231;27;19925;-81
2022/05/18 06:04:10;;;;;;;;;;;17.80;99.90;;;;;;5153871;27;20414;-81
2022/05/18 06:06:37;;;;;;;;;;;17.90;99.90;;;;;;5153719;27;19923;-81
2022/05/18 06:09:07;;;;;;;;;;;18.00;99.90;;;;;;5134586;27;20399;-81
2022/05/18 06:11:33;;;;;;;;;;;18.00;99.90;;;;;;5153369;27;20438;-81
2022/05/18 06:13:59;;;;;;;;;;;18.10;99.90;;;;;;5153586;27;19923;-81
2022/05/18 06:16:24;;;;;;;;;;;18.10;99.90;;;;;;5153154;27;19930;-81
2022/05/18 06:18:50;;;;;;;;;;;18.20;99.90;;;;;;5153149;27;20317;-80
2022/05/18 06:21:16;;;;;;;;;;;18.20;99.90;;;;;;5134821;27;19966;-80
2022/05/18 06:23:42;;;;;;;;;;;18.30;99.90;;;;;;5153257;27;20009;-81
2022/05/18 06:26:07;;;;;;;;;;;18.30;99.90;;;;;;5134796;27;19927;-81
2022/05/18 06:28:36;;;;;;;;;;;18.40;99.90;;;;;;5130622;27;20415;-81
2022/05/18 06:31:02;;;;;;;;;;;18.40;99.90;;;;;;5132478;27;19931;-81
2022/05/18 06:33:28;;;;;;;;;;;18.50;99.90;;;;;;5112999;27;19943;-81
2022/05/18 06:35:53;;;;;;;;;;;18.50;99.90;;;;;;5132056;27;19987;-81
2022/05/18 06:38:20;;;;;;;;;;;18.60;99.90;;;;;;5132070;27;19931;-81
2022/05/18 06:43:30;;;;;;;;;;;18.80;99.90;;;;;;5132136;27;19923;-81
2022/05/18 06:45:55;;;;;;;;;;;18.80;99.90;;;;;;5132394;27;20293;-81
2022/05/18 06:48:21;;;;;;;;;;;18.90;99.90;;;;;;5132021;27;20361;-81
2022/05/18 06:50:47;;;;;;;;;;;18.90;99.90;;;;;;5132038;27;19931;-81
2022/05/18 06:53:12;;;;;;;;;;;19.00;99.90;;;;;;5131623;27;19924;-81
2022/05/18 06:55:38;;;;;;;14.57;9.60;;;19.10;99.90;;;;;;5131410;27;19927;-80
2022/05/18 06:58:03;;;;;;;13.90;9.45;;;19.20;99.90;;;;;;5131622;27;20092;-81
2022/05/18 07:00:29;;;;;;;13.70;10.30;;;19.30;99.90;;;;;;5129737;27;20398;-81
2022/05/18 07:02:54;;;;;;;12.15;9.25;;;19.30;99.90;;;;;;5131743;27;20031;-81
2022/05/18 07:05:20;;;;;;;13.02;9.55;;;19.30;99.90;;;;;;5131048;27;20406;-81
2022/05/18 07:07:46;;;;;;;12.35;9.00;;;19.40;99.90;;;;;;5131543;27;20046;-80
2022/05/18 07:10:11;;;;;;;13.40;9.13;;;19.50;99.90;;;;;;5130957;27;20046;-81
2022/05/18 07:12:37;;;;;;;14.23;10.73;;;19.60;99.90;;;;;;5129638;27;20920;-81
2022/05/18 07:15:07;;;;;;;13.68;10.80;;;19.70;99.90;;;;;;5129746;27;20489;-81
2022/05/18 07:17:33;;;;;;;;;;;19.80;99.90;;;;;;5131023;27;20050;-81
2022/05/18 07:19:59;;;;;;;;;;;19.90;99.90;;;;;;5131400;27;19926;-81
2022/05/18 07:22:24;;;;;;;;;;;19.90;99.90;;;;;;5130946;27;19919;-81
2022/05/18 07:24:50;;;;;;;;;;;20.00;99.90;;;;;;5130395;27;20006;-81
2022/05/18 07:27:16;;;;;;;;;;;20.00;99.90;;;;;;5131461;27;19919;-81
2022/05/18 07:29:42;;;;;;;;;;;20.10;99.90;;;;;;5147061;27;20269;-81
2022/05/18 07:32:14;;;;;;;;;;;20.20;99.90;;;;;;5151767;27;19919;-81
2022/05/18 07:34:44;;;;;;;;;;;20.30;99.90;;;;;;5152396;27;20006;-82
2022/05/18 07:37:10;;;;;;;;;;;20.30;99.90;;;;;;5151779;27;19923;-81
2022/05/18 07:39:36;;;;;;;;;;;20.40;99.90;;;;;;5144547;27;19919;-81
2022/05/18 07:42:04;;;;;;;;;;;20.50;99.90;;;;;;5131317;27;19926;-81
2022/05/18 07:44:29;;;;;;;;;;;20.50;99.90;;;;;;5130609;27;19931;-81
2022/05/18 07:46:55;;;;;;;;;;;20.60;99.90;;;;;;5130798;27;19919;-81
2022/05/18 07:49:21;;;;;;;;;;;20.70;99.90;;;;;;5112778;27;19923;-81
2022/05/18 07:51:47;;;;;;;;;;;20.80;99.90;;;;;;5112123;27;19979;-81
2022/05/18 07:54:12;;;;;;;;;;;20.80;99.90;;;;;;5131152;27;20022;-82
2022/05/18 07:56:38;;;;;;;;;;;20.90;99.90;;;;;;5112916;27;19929;-81
2022/05/18 07:59:04;;;;;;;;;;;20.90;99.90;;;;;;5112285;27;19919;-81
2022/05/18 08:01:30;;;;;;;;;;;21.00;99.90;;;;;;5130777;27;19919;-79
2022/05/18 08:03:55;;;;;;;;;;;21.10;99.90;;;;;;5112643;28;20345;-79
2022/05/18 08:06:21;;;;;;;;;;;21.20;99.90;;;;;;5130911;27;20297;-78
2022/05/18 08:08:47;;;;;;;14.82;10.75;;;21.40;99.90;;;;;;5130631;27;20014;-79
2022/05/18 08:16:42;;;;;;;13.65;10.73;;;21.70;99.90;;;;;;5130112;27;20054;-78
2022/05/18 08:19:12;;;;;;;15.85;10.90;;;21.80;99.90;;;;;;5093814;27;20391;-79
2022/05/18 08:21:37;;;;;;;14.82;11.60;;;21.90;99.90;;;;;;5128536;27;20402;-79
2022/05/18 08:24:05;;;;;;;17.85;10.98;;;21.90;99.90;;;;;;5130219;27;20047;-79
2022/05/18 08:26:31;;;;;;;13.32;9.38;;;22.00;99.90;;;;;;5130147;27;20126;-79
2022/05/18 08:28:57;;;;;;;19.85;9.82;;;22.10;99.90;;;;;;5111605;27;20067;-79
2022/05/18 08:31:23;;;;;;;13.90;9.23;;;22.20;99.90;;;;;;5129831;27;20166;-80
2022/05/18 08:33:49;;;;;;;14.30;8.90;;;22.40;99.90;;;;;;5129831;27;20130;-79
2022/05/18 08:36:17;;;;;;;14.65;8.90;;;22.50;99.90;;;;;;5129690;27;20445;-80
2022/05/18 08:38:43;;;;;;;13.57;8.23;;;22.60;99.90;;;;;;5130007;27;20043;-80
2022/05/18 08:41:12;;;;;;;12.07;7.82;;;22.70;99.90;;;;;;5149792;27;20549;-80
2022/05/18 08:43:41;;;;;;;13.65;8.70;;;22.90;99.90;;;;;;5150361;27;20043;-80
2022/05/18 08:46:18;;;;;;;13.35;8.70;;;23.00;99.90;;;;;;5150629;27;20039;-80
2022/05/18 08:49:02;;;;;;;10.90;7.82;;;23.10;99.90;;;;;;5150792;27;20050;-80
2022/05/18 08:51:52;;;;;;;12.05;7.80;;;23.20;99.90;;;;;;5132104;27;20157;-80
2022/05/18 08:54:32;;;;;;;10.68;7.25;;;23.30;99.90;;;;;;5114980;27;20046;-80
2022/05/18 08:57:00;;;;;;;10.20;6.65;;;23.30;99.90;;;;;;5152406;27;20042;-80
2022/05/18 08:59:31;;;;;;;10.02;6.30;;;23.40;99.90;;;;;;5154449;27;20087;-79
2022/05/18 09:01:59;;;;;;;9.98;5.90;;;23.60;99.90;;;;;;5154638;27;20042;-80
2022/05/18 09:04:51;;;;;;;9.63;5.85;;;23.60;99.90;;;;;;5154239;27;20404;-79
2022/05/18 09:07:22;;;;;;;5.78;4.20;;;23.70;99.90;;;;;;5154060;27;20411;-80
2022/05/18 09:12:39;;;;;;;8.00;4.03;;;23.90;99.90;;;;;;5135459;27;20057;-80
2022/05/18 09:15:07;;;;;;;8.63;4.60;;;24.00;99.90;;;;;;5154326;27;20039;-80
2022/05/18 09:17:52;;;;;;;6.63;3.75;;;24.10;99.50;;;;;;5153981;27;20046;-80
2022/05/18 09:20:36;;;;;;;;;;;24.30;99.90;;;;;;5154274;27;20050;-79
2022/05/18 09:23:13;;;;;;;5.45;2.90;;;24.40;99.40;;;;;;5153962;27;19918;-80
2022/05/18 09:25:48;;;;;;;;;;;24.70;98.90;;;;;;5154325;27;20054;-80
2022/05/18 09:28:14;;;;;;;;;;;25.20;97.60;;;;;;5135932;27;19941;-80
2022/05/18 09:30:48;;;;;;;;;;;25.40;96.10;;;;;;5135335;27;19919;-81
2022/05/18 09:33:27;;;;;;;;;;;25.70;96.40;;;;;;5153589;27;19926;-81
2022/05/18 09:35:52;;;;;;;;;;;26.00;95.50;;;;;;5135708;27;19965;-80
2022/05/18 09:38:23;;;;;;;;;;;26.30;94.60;;;;;;5154231;27;19923;-81
2022/05/18 09:40:50;;;;;;;;;;;26.60;93.50;;;;;;5136703;27;20368;-81
2022/05/18 09:43:36;;;;;;;;;;;26.80;92.20;;;;;;5114995;27;20464;-80
2022/05/18 09:46:03;;;;;;;;;;;27.00;93.20;;;;;;5115074;27;19919;-80
2022/05/18 09:48:33;;;;;;;;;;;27.30;92.30;;;;;;5114887;27;19926;-81
2022/05/18 09:50:59;;;;;;;;;;;27.50;91.50;;;;;;5133025;27;19919;-81
2022/05/18 09:53:25;;;;;;;;;;;27.70;91.40;;;;;;5125535;27;19998;-81
2022/05/18 09:55:50;;;;;;;;;;;27.90;90.20;;;;;;5138321;27;19920;-81
2022/05/18 09:58:23;;;;;;;;;;;28.10;89.80;;;;;;5151415;27;20077;-82
2022/05/18 10:00:49;;;;;;;;;;;28.30;88.50;;;;;;5150820;27;19927;-81
2022/05/18 10:08:57;;;;;;;;;;;28.80;81.10;;;;;;5131914;27;19919;-81
2022/05/18 10:11:32;;;;;;;;;;;28.90;79.70;;;;;;5134968;27;20295;-81
2022/05/18 10:14:05;;;;;;;;;;;29.10;79.70;;;;;;5134205;27;19923;-81
2022/05/18 10:16:36;;;;;;;;;;;29.20;77.70;;;;;;5134769;27;19919;-81
2022/05/18 10:19:03;;;;;;;;;;;29.40;78.10;;;;;;5153418;27;20017;-81
2022/05/18 10:21:41;;;;;;;7.47;2.58;;;29.50;76.40;;;;;;5152296;27;19919;-80
2022/05/18 10:24:25;;;;;;;5.75;2.15;;;29.70;76.90;;;;;;5134315;27;20115;-81
2022/05/18 10:27:11;;;;;;;5.28;2.85;;;29.80;75.50;;;;;;5145601;27;20041;-80
2022/05/18 10:29:37;;;;;;;8.93;2.80;;;30.00;76.00;;;;;;5131747;27;20058;-80
2022/05/18 10:32:18;;;;;;;4.50;2.53;;;30.10;74.40;;;;;;5131902;27;20493;-80
2022/05/18 10:34:47;;;;;;;4.47;3.17;;;30.20;74.10;;;;;;5113166;27;20046;-80
2022/05/18 10:37:40;;;;;;;8.52;3.45;;;30.30;71.70;;;;;;5131824;27;20074;-80
2022/05/18 10:40:19;;;;;;;4.32;2.50;;;30.40;72.30;;;;;;5132026;27;20509;-81
2022/05/18 10:42:47;;;;;;;6.57;2.97;;;30.50;69.00;;;;;;5131274;27;20043;-80
2022/05/18 10:45:25;;;;;;;6.07;2.83;;;30.60;71.40;;;;;;5131801;27;20051;-81
2022/05/18 10:47:53;;;;;;;5.80;2.42;;;30.60;69.70;;;;;;5131717;27;20036;-80
2022/05/18 10:50:25;;;;;;;;;;;30.80;70.40;;;;;;5113866;27;20077;-81
2022/05/18 10:52:52;;;;;;;;;;;31.00;70.20;;;;;;5113506;27;19920;-81
2022/05/18 10:55:19;;;;;;;;;;;31.20;67.70;;;;;;5113519;27;20551;-81
2022/05/18 10:57:54;;;;;;;;;;;31.40;66.60;;;;;;5132113;27;20561;-81
2022/05/18 11:00:20;;;;;;;;;;;31.40;68.50;;;;;;5114935;27;19942;-81
2022/05/18 11:02:46;;;;;;;;;;;31.50;64.30;;;;;;5117181;27;19922;-81
2022/05/18 11:05:20;;;;;;;;;;;31.50;65.60;;;;;;5152386;27;20326;-81
2022/05/18 11:07:46;;;;;;;;;;;31.50;64.20;;;;;;5133865;27;19926;-81
2022/05/18 11:10:12;;;;;;;;;;;31.50;64.20;;;;;;5116653;27;19919;-81
2022/05/18 11:12:43;;;;;;;;;;;31.60;65.60;;;;;;5133687;27;19922;-81
2022/05/18 11:15:21;;;;;;;;;;;31.80;64.80;;;;;;5134258;27;19926;-81
2022/05/18 11:17:55;;;;;;;;;;;32.00;63.70;;;;;;5116684;27;20387;-81
2022/05/18 11:20:31;;;;;;;;;;;32.20;63.50;;;;;;5133438;27;19923;-81
2022/05/18 11:23:02;;;;;;;6.43;2.33;;;32.50;64.10;;;;;;5132911;27;19978;-80
2022/05/18 11:25:28;;;;;;;5.68;3.08;;;32.60;64.30;;;;;;5150270;27;20415;-80
2022/05/18 11:28:00;;;;;;;9.43;2.90;;;32.60;61.40;;;;;;5114174;27;20401;-80
2022/05/18 11:30:55;;;;;;;6.57;3.10;;;32.50;62.10;;;;;;5114716;27;20401;-81
2022/05/18 11:33:29;;;;;;;6.60;2.73;;;32.60;62.70;;;;;;5131340;27;20488;-81
2022/05/18 11:36:22;;;;;;;8.95;3.08;;;32.60;61.50;;;;;;5114535;27;20408;-81
2022/05/18 11:39:04;;;;;;;5.53;2.75;;;32.60;62.20;;;;;;5131503;27;20534;-80
2022/05/18 11:41:54;;;;;;;6.70;2.97;;;32.70;60.30;;;;;;5114054;27;20416;-81
2022/05/18 11:44:25;;;;;;;9.88;3.38;;;32.70;61.70;;;;;;5114337;27;20413;-81
2022/05/18 11:47:10;;;;;;;6.55;3.55;;;32.80;59.70;;;;;;5114052;27;20401;-80
2022/05/18 11:49:48;;;;;;;12.00;10.57;;;33.10;60.60;;;;;;5150088;27;20397;-81
2022/05/18 11:52:25;;;;;;;9.48;7.70;;;33.20;57.60;;;;;;5131120;27;20429;-80
2022/05/18 11:55:07;;;;;;;12.00;8.30;;;33.10;58.30;;;;;;5150014;27;20404;-81
2022/05/18 11:58:04;;;;;;;12.68;8.38;;;33.00;59.00;;;;;;5114169;27;20405;-81
2022/05/18 12:03:25;;;;;;;11.65;9.30;;;32.50;58.60;;;;;;5129057;27;20407;-80
2022/05/18 12:06:09;;;;;;;;;;;32.10;58.30;;;;;;5130672;27;20134;-80
2022/05/18 12:08:50;;;;;;;;;;;31.70;58.10;;;;;;5130858;27;19920;-80
2022/05/18 12:11:24;;;;;;;;;;;31.20;59.60;;;;;;5112734;27;19923;-80
2022/05/18 12:14:09;;;;;;;;;;;30.90;60.10;;;;;;5112186;27;20411;-80
2022/05/18 12:16:59;;;;;;;;;;;30.70;60.10;;;;;;5112146;27;19964;-80
2022/05/18 12:19:27;;;;;;;;;;;30.40;60.10;;;;;;5130749;27;19919;-80
2022/05/18 12:21:58;;;;;;;;;;;30.00;59.80;;;;;;5130219;27;20850;-80
2022/05/18 12:24:24;;;;;;;;;;;29.70;60.60;;;;;;5130568;27;20373;-79
2022/05/18 12:26:51;;;;;;;15.30;10.43;;;29.60;61.30;;;;;;5129720;27;19972;-80
2022/05/18 12:29:19;;;;;;;;;;;29.40;60.20;;;;;;5129838;27;20164;-80
2022/05/18 12:31:46;;;;;;;;;;;29.10;60.70;;;;;;5131892;27;19926;-80
2022/05/18 12:34:11;;;;;;;;;;;28.90;60.80;;;;;;5116019;27;19974;-80
2022/05/18 12:36:55;;;;;;;;;;;28.70;61.10;;;;;;5099021;27;19970;-80
2022/05/18 12:39:40;;;;;;;;;;;28.60;63.20;;;;;;5134507;27;19920;-81
2022/05/18 12:42:09;;;;;;;15.90;11.25;;;28.90;63.10;;;;;;5134336;27;19919;-80
2022/05/18 12:44:50;;;;;;;14.80;11.60;;;29.00;64.30;;;;;;5133934;27;20043;-79
2022/05/18 12:47:29;;;;;;;16.33;12.10;;;29.10;64.30;;;;;;5115863;27;20043;-80
2022/05/18 12:49:57;;;;;;;;;;;29.20;64.70;;;;;;5134732;27;20047;-80
2022/05/18 12:52:37;;;;;;;;;;;29.40;64.70;;;;;;5134353;27;20431;-80
2022/05/18 12:55:28;;;;;;;16.45;12.18;;;29.70;63.80;;;;;;5133817;27;19927;-80
2022/05/18 12:58:26;;;;;;;13.98;12.00;;;29.60;63.70;;;;;;5133404;27;20054;-80
2022/05/18 13:01:07;;;;;;;16.45;12.60;;;29.50;64.00;;;;;;5107579;27;20054;-80
2022/05/18 13:03:44;;;;;;;14.73;11.45;;;29.50;64.00;;;;;;5154327;27;20499;-81
2022/05/18 13:06:30;;;;;;;;;;;29.70;64.40;;;;;;5136100;27;20126;-80
2022/05/18 13:08:55;;;;;;;;;;;29.90;64.10;;;;;;5101343;27;19979;-80
2022/05/18 13:11:31;;;;;;;;;;;30.00;64.80;;;;;;5154812;27;20353;-80
2022/05/18 13:14:00;;;;;;;;;;;30.00;64.60;;;;;;5154900;27;19919;-80
2022/05/18 13:16:38;;;;;;;;;;;29.90;63.70;;;;;;5135822;27;19918;-80
2022/05/18 13:19:20;;;;;;;;;;;29.90;64.80;;;;;;5119333;27;19926;-80
2022/05/18 13:22:04;;;;;;;;;;;29.90;64.90;;;;;;5154447;27;20300;-80
2022/05/18 13:24:32;;;;;;;;;;;29.90;64.00;;;;;;5135820;27;19919;-81
2022/05/18 13:27:02;;;;;;;;;;;29.90;65.70;;;;;;5153885;27;20402;-80
2022/05/18 13:29:29;;;;;;;;;;;29.70;65.20;;;;;;5134908;27;19923;-80
2022/05/18 13:31:56;;;;;;;;;;;29.60;65.40;;;;;;5135445;27;19923;-80
2022/05/18 13:34:28;;;;;;;;;;;29.40;65.70;;;;;;5135739;27;20392;-80
2022/05/18 13:36:55;;;;;;;;;;;29.30;66.30;;;;;;5135463;27;19926;-80
2022/05/18 13:39:23;;;;;;;;;;;29.20;65.80;;;;;;5135612;27;19926;-80
2022/05/18 13:41:49;;;;;;;;;;;29.20;66.50;;;;;;5154193;27;19923;-80
2022/05/18 13:44:14;;;;;;;;;;;29.20;67.30;;;;;;5134042;27;19923;-80
2022/05/18 13:46:40;;;;;;;;;;;29.10;67.70;;;;;;5135179;27;20345;-80
2022/05/18 13:49:25;;;;;;;;;;;29.20;68.50;;;;;;5135556;27;19919;-80
2022/05/18 13:51:54;;;;;;;;;;;29.40;67.60;;;;;;5134881;27;19938;-81
2022/05/18 13:54:21;;;;;;;;;;;29.60;67.80;;;;;;5135826;27;19926;-80
2022/05/18 13:56:48;;;;;;;;;;;29.90;67.20;;;;;;5118308;27;20009;-81
2022/05/18 13:59:20;;;;;;;26.85;20.05;;;30.00;66.70;;;;;;5153503;27;19925;-80
2022/05/18 14:01:47;;;;;;;;;;;30.20;66.40;;;;;;5135291;27;20081;-80
2022/05/18 14:04:18;;;;;;;;;;;30.40;67.10;;;;;;5117822;27;19923;-80
2022/05/18 14:06:48;;;;;;;;;;;30.60;66.30;;;;;;5118479;27;19919;-80
2022/05/18 14:09:17;;;;;;;23.60;20.10;;;30.80;65.10;;;;;;5153334;27;19966;-80
2022/05/18 14:11:43;;;;;;;28.05;19.52;;;30.90;65.20;;;;;;5134473;27;20054;-80
2022/05/18 14:14:08;;;;;;;24.80;18.55;;;30.80;65.80;;;;;;5153206;27;20047;-80
2022/05/18 14:16:56;;;;;;;24.38;19.08;;;30.60;65.50;;;;;;5152427;27;20053;-80
2022/05/18 14:19:32;;;;;;;;;;;30.40;65.20;;;;;;5153329;27;20505;-80
2022/05/18 14:21:58;;;;;;;;;;;30.10;66.20;;;;;;5135174;27;20428;-80
2022/05/18 14:24:32;;;;;;;;;;;29.80;67.00;;;;;;5134826;27;20009;-80
2022/05/18 14:27:05;;;;;;;;;;;29.60;66.70;;;;;;5134499;27;19996;-80
2022/05/18 14:29:46;;;;;;;;;;;29.40;67.10;;;;;;5134695;27;19922;-80